Albion, Idaho
Current Conditions -  °F | °C
As of 2:08 AM on Thursday 18 Dec 2014 (Local Time) from KBYI Reporting Station
Haze Haze  
Wind Chill: -4°   Ceiling: Unl
Heat Index: -4°   Visibility: 5mi
Dew Point: -6°   Wind: 0mph
Humidity: 88%   Direction: NA
Pressure: 30.03"   Gusts: NA
Location:  42.41°N, 113.58°W
Report Text: KBYI 180908Z AUTO 00000KT 5SM BR CLR M04/M06 A3003 RMK AO2 T10441061
Loading
Personal Weather Stations






























Interactive Weather Map New forecast layout! Learn more

10-Day Weather Forecast

Advertisements
Track Severe Weather on mobile